Aeroporto :
LOGIN :

Iscrizione | Disclaimer

   EN    FR    IT 

 










Sommario :    VFR   VFR Marginale   IFR   IFR Intensivo   IFR Molto Intensivo
Visibilità : 
Base nubi : 
>= 8 km
>= 3000ft
5 / 8 km
1000 / 3000 ft
1500m / 5 km
500 / 1000 ft
800 / 1500m
200 / 500 ft
< 800m
< 200 ft
Simboli :   Temporali  Nebbia  Neve Forte  Precipitazioni Forti  Vento > 20 kt
SIGMETs :   Varie  Temporali  Ghiacco  Turbolenza  Onda orograficha  Ceneri Vulcaniche






- Altitudine del aeroporto : 1545 ft
- Codice IATA : RAK


GMMX - Menara Int.

ULTIMO METAR :
  • 071030Z 05007KT 020V090 CAVOK 24/14 Q1021 NOSIG

METARs OBSOLETI :
  • 071000Z 03005KT 350V080 8000 NSC 22/14 Q1021 NOSIG
  • 070930Z 34003KT 270V050 8000 NSC 22/14 Q1021 NOSIG
  • 070900Z VRB02KT 8000 NSC 21/15 Q1021 NOSIG
  • 070830Z VRB02KT 8000 NSC 20/13 Q1021 NOSIG
  • 070800Z VRB02KT CAVOK 19/14 Q1021 NOSIG

TAF TAF GMMX
Valido dal 07 a 06 ore il 08 a 12 ore UTC


070500Z 0706/0812 24006KT 8000 SCT023
TEMPO 0716/0720 34015KT



MetMap, La meteo Aeronautica in un colpo d'occhio ! - Copyright ORBIFLY Dicembre 2007 - Disclaimer

ORBIFLY MET'MAP TEAM :

Programmazione e sviluppo : Alexandra Zaïnal
Concezione : Baudouin d'Aumeries
Aiuto per la programmazione : Marc-Olivier Méhu
Supporto tecnico e logistico : Manuel Goepfert
Aiuto per la traduzione : Arnaldo La Scala

Contatto : metmap@orbifly.com




FONTI E CREDITI :

   NOAA